Time;durP1;ratioP1;P1;durP2;ratioP2;P2;SDS_P1;SDS_P2;PMS_P1;PMS_P2;Temp;Humidity;BMP_temperature;BMP_pressure;BME280_temperature;BME280_humidity;BME280_pressure;Samples;Min_cycle;Max_cycle;Signal;HPM_P1;HPM_P2
2022/10/25 00:01:18;;;;;;;41.40;38.20;;;;;;;13.05;100.00;100759.59;5031889;28;20448;-43
2022/10/25 00:03:46;;;;;;;41.87;38.57;;;;;;;13.01;100.00;100767.22;5031741;28;20841;-44
2022/10/25 00:06:14;;;;;;;41.87;38.90;;;;;;;12.98;100.00;100761.47;5031873;28;20432;-46
2022/10/25 00:08:42;;;;;;;44.33;40.57;;;;;;;12.94;100.00;100753.03;5031165;28;20439;-44
2022/10/25 00:11:15;;;;;;;43.87;39.87;;;;;;;12.94;100.00;100757.56;5031601;28;20525;-47
2022/10/25 00:13:44;;;;;;;42.73;39.43;;;;;;;12.94;100.00;100766.41;5031799;28;20821;-44
2022/10/25 00:16:13;;;;;;;43.90;39.90;;;;;;;12.95;100.00;100757.38;5031753;28;20510;-44
2022/10/25 00:18:41;;;;;;;43.83;40.43;;;;;;;12.95;100.00;100761.88;5031203;28;20498;-44
2022/10/25 00:21:09;;;;;;;43.33;39.93;;;;;;;12.98;100.00;100750.75;5035154;28;20452;-46
2022/10/25 00:23:37;;;;;;;42.77;39.50;;;;;;;13.00;100.00;100752.19;5031759;28;20806;-46
2022/10/25 00:26:06;;;;;;;43.27;39.73;;;;;;;12.99;100.00;100750.53;5031596;28;20493;-44
2022/10/25 00:28:33;;;;;;;43.40;39.93;;;;;;;12.98;100.00;100748.09;5031180;28;20424;-44
2022/10/25 00:31:04;;;;;;;44.70;41.10;;;;;;;12.96;100.00;100750.97;5022450;28;20969;-45
2022/10/25 00:33:33;;;;;;;44.23;40.27;;;;;;;12.91;100.00;100753.47;5031534;28;20436;-44
2022/10/25 00:36:04;;;;;;;43.30;40.10;;;;;;;12.92;100.00;100756.97;5031206;28;20428;-44
2022/10/25 00:38:32;;;;;;;43.30;39.83;;;;;;;12.91;100.00;100766.00;5021839;28;20421;-46
2022/10/25 00:41:01;;;;;;;42.70;39.13;;;;;;;12.93;100.00;100762.09;5031104;28;20456;-45
2022/10/25 00:43:33;;;;;;;42.97;39.70;;;;;;;12.95;100.00;100767.25;5031326;28;20982;-44
2022/10/25 00:46:07;;;;;;;43.10;39.60;;;;;;;12.97;100.00;100765.16;5029560;28;20925;-45
2022/10/25 00:48:35;;;;;;;42.90;39.20;;;;;;;12.98;100.00;100762.31;5030909;28;20431;-47
2022/10/25 00:51:04;;;;;;;43.57;40.27;;;;;;;13.01;100.00;100769.91;5032928;28;20463;-44
2022/10/25 00:53:36;;;;;;;45.37;41.03;;;;;;;13.03;100.00;100769.69;5035427;28;20501;-44
2022/10/25 00:56:10;;;;;;;43.70;40.27;;;;;;;13.03;100.00;100761.66;5035342;28;20428;-44
2022/10/25 00:58:40;;;;;;;43.90;39.80;;;;;;;13.01;100.00;100763.72;5034523;28;20417;-45
2022/10/25 01:01:09;;;;;;;44.00;40.33;;;;;;;13.03;100.00;100770.50;5035037;28;20821;-44
2022/10/25 01:03:39;;;;;;;43.27;39.47;;;;;;;13.02;100.00;100765.38;5037789;28;20432;-45
2022/10/25 01:06:12;;;;;;;40.57;37.10;;;;;;;13.00;100.00;100768.25;5030495;28;20435;-44
2022/10/25 01:08:42;;;;;;;41.90;37.80;;;;;;;13.01;100.00;100769.09;5034755;28;20432;-44
2022/10/25 01:11:10;;;;;;;41.33;37.90;;;;;;;12.98;100.00;100764.16;5034880;28;20513;-46
2022/10/25 01:13:37;;;;;;;40.63;37.17;;;;;;;12.96;100.00;100761.66;5034999;28;20468;-45
2022/10/25 01:16:18;;;;;;;43.80;39.53;;;;;;;12.92;100.00;100762.31;5035180;28;20493;-45
2022/10/25 01:18:54;;;;;;;42.63;38.33;;;;;;;12.87;100.00;100756.78;5034580;28;20424;-45
2022/10/25 01:21:39;;;;;;;42.83;38.40;;;;;;;12.80;100.00;100759.47;5042508;28;20459;-46
2022/10/25 01:24:31;;;;;;;42.17;38.40;;;;;;;12.74;100.00;100763.81;5027637;28;20439;-45
2022/10/25 01:27:15;;;;;;;40.17;37.13;;;;;;;12.69;100.00;100758.25;5034185;28;20482;-44
2022/10/25 01:30:03;;;;;;;41.93;37.97;;;;;;;12.65;100.00;100765.06;5034088;28;20460;-45
2022/10/25 01:32:38;;;;;;;39.47;36.30;;;;;;;12.63;100.00;100756.41;5066307;22;20490;-48
2022/10/25 01:35:16;;;;;;;40.90;36.77;;;;;;;12.63;100.00;100751.06;5051055;28;20457;-49
2022/10/25 01:38:13;;;;;;;41.07;37.30;;;;;;;12.65;100.00;100750.88;5054466;28;20422;-47
2022/10/25 01:40:48;;;;;;;40.13;36.30;;;;;;;12.66;100.00;100753.31;5046789;28;20589;-49
2022/10/25 01:43:27;;;;;;;39.17;36.10;;;;;;;12.70;100.00;100751.06;5054110;28;20931;-43
2022/10/25 01:46:01;;;;;;;42.63;36.97;;;;;;;12.72;100.00;100752.47;5054075;28;20435;-48
2022/10/25 01:48:34;;;;;;;38.60;35.30;;;;;;;12.68;100.00;100748.59;5054076;28;20442;-50
2022/10/25 01:51:08;;;;;;;38.53;35.40;;;;;;;12.70;100.00;100751.88;5053721;28;20443;-44
2022/10/25 01:53:44;;;;;;;39.80;36.30;;;;;;;12.70;100.00;100759.91;5053766;28;20533;-48
2022/10/25 01:56:20;;;;;;;39.00;35.67;;;;;;;12.73;100.00;100751.47;5054205;28;20420;-43
2022/10/25 01:59:04;;;;;;;39.13;35.77;;;;;;;12.74;100.00;100750.44;5053770;28;20423;-46
2022/10/25 02:01:42;;;;;;;39.10;34.97;;;;;;;12.76;100.00;100760.91;5053351;28;20516;-43
2022/10/25 02:04:22;;;;;;;38.50;35.37;;;;;;;12.77;100.00;100750.00;5054059;28;20461;-47
2022/10/25 02:06:59;;;;;;;38.40;35.30;;;;;;;12.80;100.00;100764.00;5052487;28;20427;-43
2022/10/25 02:09:33;;;;;;;38.40;35.40;;;;;;;12.81;100.00;100762.97;5053264;28;20508;-50
2022/10/25 02:12:03;;;;;;;39.77;36.20;;;;;;;12.81;100.00;100761.13;5053313;28;20451;-47
2022/10/25 02:14:35;;;;;;;39.10;35.10;;;;;;;12.81;100.00;100763.81;5053557;28;20481;-44
2022/10/25 02:17:08;;;;;;;39.00;35.87;;;;;;;12.85;100.00;100758.81;5053261;28;20432;-45
2022/10/25 02:19:40;;;;;;;40.27;35.97;;;;;;;12.83;100.00;100766.25;5051327;28;20975;-43
2022/10/25 02:22:10;;;;;;;39.73;36.20;;;;;;;12.85;100.00;100761.50;5050777;28;20452;-43
2022/10/25 02:24:40;;;;;;;40.03;36.60;;;;;;;12.86;100.00;100768.50;5051663;28;20781;-44
2022/10/25 02:27:11;;;;;;;39.03;35.67;;;;;;;12.83;100.00;100764.41;5053380;28;20831;-48
2022/10/25 02:29:40;;;;;;;39.50;36.30;;;;;;;12.84;100.00;100767.91;5052968;28;20463;-46
2022/10/25 02:32:08;;;;;;;40.20;36.60;;;;;;;12.85;100.00;100764.19;5052690;28;20463;-45
2022/10/25 02:34:39;;;;;;;39.40;35.93;;;;;;;12.87;100.00;100762.13;5053061;28;20485;-43
2022/10/25 02:37:06;;;;;;;38.90;35.53;;;;;;;12.87;100.00;100762.13;5051585;28;20432;-46
2022/10/25 02:39:35;;;;;;;41.13;37.27;;;;;;;12.88;100.00;100777.13;5049979;28;20459;-48
2022/10/25 02:42:03;;;;;;;38.17;35.23;;;;;;;12.86;100.00;100772.00;5052901;28;20505;-44
2022/10/25 02:44:31;;;;;;;38.67;35.60;;;;;;;12.89;100.00;100762.72;5052880;28;20843;-48
2022/10/25 02:46:58;;;;;;;39.13;35.67;;;;;;;12.89;100.00;100766.25;5052985;28;20431;-49
2022/10/25 02:49:27;;;;;;;38.17;35.23;;;;;;;12.90;100.00;100767.91;5052558;28;20479;-50
2022/10/25 02:51:56;;;;;;;38.00;34.60;;;;;;;12.92;100.00;100770.34;5051527;28;20451;-52
2022/10/25 02:54:24;;;;;;;38.63;35.37;;;;;;;12.90;100.00;100775.94;5052944;28;20474;-51
2022/10/25 02:56:52;;;;;;;40.43;36.27;;;;;;;12.91;100.00;100774.03;5052574;28;20458;-47
2022/10/25 02:59:20;;;;;;;39.10;36.00;;;;;;;12.91;100.00;100774.88;5052241;28;21044;-49
2022/10/25 03:01:48;;;;;;;38.87;35.50;;;;;;;12.90;100.00;100764.38;5052307;28;20455;-52
2022/10/25 03:04:16;;;;;;;39.37;35.70;;;;;;;12.92;100.00;100767.66;5046659;28;20438;-47
2022/10/25 03:06:43;;;;;;;39.47;35.77;;;;;;;12.95;100.00;100777.94;5052908;28;20778;-48
2022/10/25 03:09:12;;;;;;;39.13;35.67;;;;;;;12.94;100.00;100773.63;5046797;28;20521;-50
2022/10/25 03:11:40;;;;;;;40.70;37.13;;;;;;;12.95;100.00;100780.63;5051473;28;20972;-51
2022/10/25 03:14:08;;;;;;;41.37;37.63;;;;;;;12.93;100.00;100766.66;5052079;28;20533;-51
2022/10/25 03:16:35;;;;;;;40.43;36.83;;;;;;;12.93;100.00;100777.34;5051390;28;20489;-49
2022/10/25 03:19:03;;;;;;;40.87;37.30;;;;;;;12.94;100.00;100784.31;5052001;28;20525;-49
2022/10/25 03:21:31;;;;;;;38.33;35.47;;;;;;;12.95;100.00;100789.50;5059780;28;20485;-52
2022/10/25 03:23:58;;;;;;;39.53;36.20;;;;;;;12.95;100.00;100785.97;5061070;28;20431;-49
2022/10/25 03:26:27;;;;;;;39.80;36.53;;;;;;;12.96;100.00;100799.13;5052273;28;20431;-48
2022/10/25 03:28:55;;;;;;;38.90;36.00;;;;;;;12.97;100.00;100799.97;5051751;28;20462;-48
2022/10/25 03:31:23;;;;;;;41.77;38.20;;;;;;;12.99;100.00;100798.72;5051958;28;20513;-49
2022/10/25 03:33:51;;;;;;;40.90;36.70;;;;;;;12.98;100.00;100794.41;5051901;28;21010;-47
2022/10/25 03:36:19;;;;;;;38.77;35.57;;;;;;;12.97;100.00;100800.78;5052247;28;20557;-51
2022/10/25 03:38:46;;;;;;;43.67;39.73;;;;;;;12.96;100.00;100804.50;5051711;28;20435;-50
2022/10/25 03:41:14;;;;;;;39.97;35.90;;;;;;;12.97;100.00;100806.16;5056177;28;20431;-50
2022/10/25 03:43:43;;;;;;;39.17;35.70;;;;;;;13.00;100.00;100804.91;5054791;28;20427;-52
2022/10/25 03:46:11;;;;;;;40.87;37.17;;;;;;;13.00;100.00;100807.56;5042615;28;20440;-51
2022/10/25 03:48:38;;;;;;;40.37;37.13;;;;;;;12.98;100.00;100802.44;5051302;28;20489;-51
2022/10/25 03:51:06;;;;;;;42.17;38.67;;;;;;;13.01;100.00;100814.59;5051435;28;20477;-52
2022/10/25 03:53:34;;;;;;;42.20;38.37;;;;;;;13.01;100.00;100806.56;5051881;28;20475;-49
2022/10/25 03:56:01;;;;;;;40.63;37.40;;;;;;;13.00;100.00;100815.59;5051914;28;20493;-50
2022/10/25 03:58:29;;;;;;;43.73;39.83;;;;;;;13.00;100.00;100818.28;5051975;28;20489;-54
2022/10/25 04:00:58;;;;;;;42.30;38.50;;;;;;;13.02;100.00;100827.75;5051224;28;20440;-52
2022/10/25 04:03:26;;;;;;;44.60;40.50;;;;;;;13.02;100.00;100818.91;5050306;28;20867;-49
2022/10/25 04:05:54;;;;;;;43.40;39.40;;;;;;;13.00;100.00;100829.81;5051553;28;20436;-49
2022/10/25 04:08:21;;;;;;;45.00;40.50;;;;;;;13.00;100.00;100829.81;5051611;28;20439;-51
2022/10/25 04:10:49;;;;;;;44.33;39.87;;;;;;;13.02;100.00;100826.94;5050644;28;20459;-52
2022/10/25 04:13:16;;;;;;;43.20;39.40;;;;;;;13.03;100.00;100831.25;5051432;28;20867;-54
2022/10/25 04:15:44;;;;;;;46.37;41.67;;;;;;;13.01;100.00;100838.69;5051566;28;20439;-52
2022/10/25 04:18:13;;;;;;;47.53;42.93;;;;;;;13.01;100.00;100838.69;5051736;28;20462;-50
2022/10/25 04:20:40;;;;;;;45.70;41.00;;;;;;;13.02;100.00;100838.44;5049244;28;20462;-51
2022/10/25 04:23:08;;;;;;;45.87;41.83;;;;;;;13.03;100.00;100841.97;5062935;28;20509;-52
2022/10/25 04:25:35;;;;;;;46.10;41.13;;;;;;;13.06;100.00;100841.53;5051498;28;20501;-52
2022/10/25 04:28:03;;;;;;;44.87;40.77;;;;;;;13.08;100.00;100836.84;5051213;28;20431;-53
2022/10/25 04:30:31;;;;;;;44.80;40.63;;;;;;;13.07;100.00;100832.50;5050825;28;20584;-51
2022/10/25 04:33:05;;;;;;;46.53;42.13;;;;;;;13.07;100.00;100832.50;5041689;28;20463;-52
2022/10/25 04:35:34;;;;;;;44.63;40.33;;;;;;;13.05;100.00;100830.00;5051173;28;20486;-48
2022/10/25 04:38:01;;;;;;;45.30;40.57;;;;;;;13.03;100.00;100824.03;5049628;28;20435;-51
2022/10/25 04:40:29;;;;;;;48.10;41.90;;;;;;;13.03;100.00;100837.44;5049352;28;20955;-51
2022/10/25 04:43:01;;;;;;;47.87;42.73;;;;;;;13.04;100.00;100841.75;5051085;28;20856;-48
2022/10/25 04:45:28;;;;;;;45.77;41.40;;;;;;;13.05;100.00;100839.91;5048115;28;20500;-49
2022/10/25 04:47:56;;;;;;;46.40;41.77;;;;;;;13.06;100.00;100844.22;5051261;28;20439;-51
2022/10/25 04:50:24;;;;;;;48.33;42.30;;;;;;;13.07;100.00;100843.19;5050428;28;20521;-52
2022/10/25 04:52:53;;;;;;;45.70;41.23;;;;;;;13.09;100.00;100849.19;5050805;28;20505;-49
2022/10/25 04:55:20;;;;;;;46.13;41.50;;;;;;;13.11;100.00;100839.09;5050837;28;20521;-52
2022/10/25 04:57:48;;;;;;;48.13;43.37;;;;;;;13.08;100.00;100853.72;5049584;28;20435;-47
2022/10/25 05:00:16;;;;;;;49.03;43.93;;;;;;;13.09;100.00;100847.34;5050460;28;20467;-49
2022/10/25 05:02:43;;;;;;;48.17;43.77;;;;;;;13.09;100.00;100854.53;5050372;28;20481;-49
2022/10/25 05:05:11;;;;;;;48.47;43.50;;;;;;;13.11;100.00;100857.84;5050980;28;20808;-51
2022/10/25 05:07:39;;;;;;;49.10;44.20;;;;;;;13.11;100.00;100861.31;5051004;28;20458;-50
2022/10/25 05:10:08;;;;;;;48.90;43.73;;;;;;;13.11;100.00;100861.31;5050412;28;20456;-53
2022/10/25 05:12:36;;;;;;;47.00;43.00;;;;;;;13.11;100.00;100860.53;5050600;28;20505;-50
2022/10/25 05:15:04;;;;;;;47.60;42.83;;;;;;;13.12;100.00;100867.50;5050647;28;20471;-51
2022/10/25 05:17:32;;;;;;;49.47;42.07;;;;;;;13.13;100.00;100863.81;5050894;28;20847;-54
2022/10/25 05:20:00;;;;;;;49.77;45.23;;;;;;;13.15;100.00;100870.59;5051702;28;20870;-53
2022/10/25 05:22:28;;;;;;;49.40;44.50;;;;;;;13.14;100.00;100860.09;5058238;28;20480;-48
2022/10/25 05:24:55;;;;;;;50.57;45.40;;;;;;;13.15;100.00;100867.09;5051044;28;20493;-48
2022/10/25 05:27:24;;;;;;;49.97;44.60;;;;;;;13.16;100.00;100874.09;5050532;28;20473;-53
2022/10/25 05:29:52;;;;;;;49.33;44.50;;;;;;;13.16;100.00;100868.75;5050244;28;20528;-51
2022/10/25 05:32:19;;;;;;;49.27;44.90;;;;;;;13.17;100.00;100871.19;5048130;28;21049;-49
2022/10/25 05:34:47;;;;;;;49.10;44.20;;;;;;;13.17;100.00;100868.53;5046731;28;20985;-50
2022/10/25 05:37:14;;;;;;;49.13;44.50;;;;;;;13.18;100.00;100869.34;5054342;28;20448;-48
2022/10/25 05:39:42;;;;;;;49.13;44.63;;;;;;;13.20;100.00;100872.66;5053531;28;21045;-48
2022/10/25 05:42:10;;;;;;;51.57;45.40;;;;;;;13.19;100.00;100882.53;5050675;28;20454;-51
2022/10/25 05:44:39;;;;;;;51.03;45.57;;;;;;;13.20;100.00;100869.97;5054104;28;21009;-54
2022/10/25 05:47:06;;;;;;;48.83;44.43;;;;;;;13.20;100.00;100875.34;5053057;28;20990;-49
2022/10/25 05:49:38;;;;;;;48.80;44.07;;;;;;;13.21;100.00;100877.78;5053630;28;20517;-51
2022/10/25 05:52:06;;;;;;;52.30;45.67;;;;;;;13.20;100.00;100886.84;5053962;28;20877;-52
2022/10/25 05:54:33;;;;;;;49.10;44.00;;;;;;;13.20;100.00;100886.03;5053868;28;20822;-52
2022/10/25 05:57:01;;;;;;;51.50;45.97;;;;;;;13.22;100.00;100895.50;5051174;28;20439;-48
2022/10/25 05:59:28;;;;;;;59.70;47.67;;;;;;;13.21;100.00;100893.84;5053358;28;20489;-51
2022/10/25 06:01:57;;;;;;;51.07;45.57;;;;;;;13.22;100.00;100895.50;5053387;28;20516;-49
2022/10/25 06:04:25;;;;;;;52.53;45.30;;;;;;;13.22;100.00;100902.72;5053630;28;20508;-49
2022/10/25 06:06:52;;;;;;;49.93;44.73;;;;;;;13.24;100.00;100908.69;5053883;28;20435;-49
2022/10/25 06:09:21;;;;;;;50.13;44.67;;;;;;;13.22;100.00;100905.41;5053396;28;20515;-52
2022/10/25 06:11:48;;;;;;;49.50;44.20;;;;;;;13.24;100.00;100904.16;5052622;28;20524;-52
2022/10/25 06:14:16;;;;;;;49.20;44.43;;;;;;;13.26;100.00;100912.00;5053130;28;20450;-51
2022/10/25 06:16:43;;;;;;;47.37;42.80;;;;;;;13.23;100.00;100913.19;5053003;28;20435;-51
2022/10/25 06:19:12;;;;;;;51.00;45.10;;;;;;;13.25;100.00;100923.72;5051151;28;20463;-50
2022/10/25 06:21:40;;;;;;;47.57;43.27;;;;;;;13.26;100.00;100918.13;5059393;28;20510;-47
2022/10/25 06:24:09;;;;;;;47.40;42.63;;;;;;;13.27;100.00;100933.19;5056145;28;20436;-54
2022/10/25 06:26:36;;;;;;;47.20;42.50;;;;;;;13.29;100.00;100928.44;5053483;28;20481;-49
2022/10/25 06:29:05;;;;;;;46.27;42.37;;;;;;;13.28;100.00;100931.34;5052541;28;20980;-51
2022/10/25 06:31:33;;;;;;;45.77;41.77;;;;;;;13.34;100.00;100927.00;5052875;28;20824;-50
2022/10/25 06:34:01;;;;;;;45.77;41.83;;;;;;;13.35;100.00;100934.81;5052391;28;20936;-50
2022/10/25 06:36:30;;;;;;;48.17;43.30;;;;;;;13.37;100.00;100934.59;5052905;28;20463;-50
2022/10/25 06:38:59;;;;;;;47.77;42.70;;;;;;;13.38;100.00;100937.06;5052877;28;20462;-49
2022/10/25 06:41:35;;;;;;;47.73;42.73;;;;;;;13.40;100.00;100939.56;5052840;28;20858;-49
2022/10/25 06:44:02;;;;;;;49.30;44.10;;;;;;;13.39;100.00;100945.94;5044220;28;20443;-52
2022/10/25 06:46:35;;;;;;;47.00;42.70;;;;;;;13.39;100.00;100943.25;5052835;28;20917;-50
2022/10/25 06:49:23;;;;;;;47.03;42.40;;;;;;;13.39;100.00;100949.44;5052620;28;20483;-51
2022/10/25 06:51:52;;;;;;;48.43;43.43;;;;;;;13.40;100.00;100945.72;5052692;28;20494;-54
2022/10/25 06:54:19;;;;;;;47.30;42.53;;;;;;;13.38;100.00;100952.34;5053099;28;20782;-50
2022/10/25 06:56:47;;;;;;;48.37;43.27;;;;;;;13.40;100.00;100961.81;5052827;28;20532;-50
2022/10/25 06:59:15;;;;;;;48.53;43.93;;;;;;;13.44;100.00;100968.38;5052149;28;20891;-50
2022/10/25 07:01:43;;;;;;;43.03;39.43;;;;;;;13.47;100.00;100961.81;5052361;28;20976;-48
2022/10/25 07:04:11;;;;;;;46.47;41.47;;;;;;;13.44;100.00;100964.91;5052680;28;20442;-51
2022/10/25 07:06:38;;;;;;;47.03;42.07;;;;;;;13.47;100.00;100967.16;5052595;28;20483;-51
2022/10/25 07:09:09;;;;;;;46.30;42.03;;;;;;;13.50;100.00;100970.22;5052002;28;21266;-51
2022/10/25 07:11:36;;;;;;;43.80;40.03;;;;;;;13.54;100.00;100967.94;5052247;28;20974;-50
2022/10/25 07:14:04;;;;;;;42.73;39.30;;;;;;;13.57;100.00;100975.56;5052391;28;20927;-53
2022/10/25 07:16:32;;;;;;;43.10;39.20;;;;;;;13.58;100.00;100979.91;5052584;28;20475;-52
2022/10/25 07:19:01;;;;;;;44.00;40.27;;;;;;;13.59;100.00;100986.91;5051753;28;20979;-52
2022/10/25 07:21:30;;;;;;;42.57;38.97;;;;;;;13.59;100.00;100981.56;5057267;28;20540;-52
2022/10/25 07:23:58;;;;;;;42.03;38.67;;;;;;;13.65;100.00;100981.50;5058103;28;20439;-48
2022/10/25 07:26:28;;;;;;;44.20;39.70;;;;;;;13.64;100.00;100979.06;5052478;28;20485;-50
2022/10/25 07:28:59;;;;;;;43.17;38.93;;;;;;;13.73;100.00;100978.63;5041785;28;20469;-49
2022/10/25 07:31:29;;;;;;;43.77;39.90;;;;;;;13.79;100.00;100977.78;5052062;28;20455;-52
2022/10/25 07:33:58;;;;;;;41.10;37.40;;;;;;;13.85;100.00;100978.78;5052450;28;20436;-52
2022/10/25 07:36:26;;;;;;;42.80;38.57;;;;;;;13.88;100.00;100983.72;5052019;28;20478;-54
2022/10/25 07:38:55;;;;;;;48.50;39.90;;;;;;;13.92;100.00;100982.25;5049049;28;20509;-52
2022/10/25 07:41:23;;;;;;;41.93;39.03;;;;;;;13.96;100.00;100988.00;5051956;28;20451;-50
2022/10/25 07:43:52;;;;;;;44.60;40.10;;;;;;;14.03;100.00;100992.31;5051930;28;20427;-52
2022/10/25 07:46:19;;;;;;;42.13;37.87;;;;;;;14.10;100.00;100990.41;5073158;22;20483;-47
2022/10/25 07:48:47;;;;;;;40.83;37.70;;;;;;;14.16;100.00;100997.59;5039841;28;20504;-44
2022/10/25 07:51:17;;;;;;;43.87;39.93;;;;;;;14.30;100.00;100998.38;5050777;28;20461;-46
2022/10/25 07:53:44;;;;;;;41.67;37.73;;;;;;;14.30;100.00;101004.56;5052423;28;20458;-44
2022/10/25 07:56:13;;;;;;;42.57;38.60;;;;;;;14.39;100.00;101005.19;5051788;28;20520;-47
2022/10/25 07:58:47;;;;;;;42.57;38.60;;;;;;;14.39;100.00;101013.22;5051157;28;20776;-51
2022/10/25 08:01:19;;;;;;;43.70;40.00;;;;;;;14.48;100.00;101005.75;5038237;28;20428;-47
2022/10/25 08:03:47;;;;;;;41.80;38.00;;;;;;;14.53;100.00;101009.41;5048180;28;20432;-46
2022/10/25 08:06:15;;;;;;;42.60;39.13;;;;;;;14.56;100.00;101011.66;5032750;28;20502;-46
2022/10/25 08:08:42;;;;;;;42.53;38.90;;;;;;;14.56;100.00;101013.53;5040147;28;20431;-50
2022/10/25 08:11:10;;;;;;;42.20;38.63;;;;;;;14.69;100.00;101021.50;5037421;28;20428;-50
2022/10/25 08:13:39;;;;;;;43.73;38.87;;;;;;;14.69;100.00;101014.28;5042815;28;20432;-48
2022/10/25 08:16:07;;;;;;;43.50;39.30;;;;;;;14.75;100.00;101017.97;5048037;28;21053;-46
2022/10/25 08:18:36;;;;;;;42.53;38.70;;;;;;;14.74;100.00;101025.19;5034471;28;20440;-46
2022/10/25 08:21:04;;;;;;;41.23;38.03;;;;;;;14.63;100.00;101031.25;5032573;28;20796;-47
2022/10/25 08:23:32;;;;;;;41.57;38.23;;;;;;;14.61;100.00;101033.31;5038028;28;20840;-49
2022/10/25 08:26:00;;;;;;;41.17;37.80;;;;;;;14.67;100.00;101024.41;5049472;28;20855;-45
2022/10/25 08:28:29;;;;;;;41.77;38.13;;;;;;;14.62;100.00;101044.88;5048835;28;20933;-45
2022/10/25 08:30:57;;;;;;;41.07;37.40;;;;;;;14.77;100.00;101035.50;5031302;28;20444;-47
2022/10/25 08:33:25;;;;;;;41.07;37.37;;;;;;;14.80;100.00;101039.59;5044546;28;20469;-48
2022/10/25 08:35:54;;;;;;;39.30;35.97;;;;;;;14.76;100.00;101044.56;5037031;28;20472;-51
2022/10/25 08:38:21;;;;;;;38.33;35.40;;;;;;;14.85;100.00;101043.28;5040012;28;20435;-47
2022/10/25 08:40:57;;;;;;;40.13;36.47;;;;;;;14.81;100.00;101044.72;5037970;28;20464;-49
2022/10/25 08:43:45;;;;;;;38.70;35.40;;;;;;;14.82;100.00;101045.56;5041042;28;20484;-46
2022/10/25 08:46:18;;;;;;;36.73;33.60;;;;;;;14.78;100.00;101047.84;5022136;28;20506;-49
2022/10/25 08:48:50;;;;;;;37.40;34.43;;;;;;;14.88;100.00;101058.94;5024632;28;20412;-48
2022/10/25 08:51:27;;;;;;;37.07;34.20;;;;;;;15.06;100.00;101052.84;5050822;28;20493;-45
2022/10/25 08:53:58;;;;;;;37.43;34.57;;;;;;;15.24;100.00;101058.28;5015778;28;20451;-47
2022/10/25 08:56:28;;;;;;;39.07;35.47;;;;;;;15.32;100.00;101062.56;5045155;28;20887;-47
2022/10/25 08:58:57;;;;;;;37.73;35.00;;;;;;;15.40;100.00;101055.03;5050844;28;20867;-49
2022/10/25 09:01:29;;;;;;;39.57;35.83;;;;;;;15.40;100.00;101052.34;5051338;28;20824;-48
2022/10/25 09:03:59;;;;;;;37.07;34.10;;;;;;;15.41;100.00;101061.25;5051295;28;20545;-46
2022/10/25 09:06:35;;;;;;;38.57;35.30;;;;;;;15.47;100.00;101074.63;5047421;28;20452;-44
2022/10/25 09:09:15;;;;;;;38.50;35.33;;;;;;;15.58;100.00;101061.53;5030900;28;21018;-47
2022/10/25 09:11:53;;;;;;;36.97;33.93;;;;;;;15.75;100.00;101071.47;5034460;28;20447;-45
2022/10/25 09:14:30;;;;;;;37.90;34.60;;;;;;;15.78;100.00;101067.53;5035504;28;20424;-48
2022/10/25 09:17:04;;;;;;;38.90;36.17;;;;;;;15.75;100.00;101082.25;5048420;28;20908;-46
2022/10/25 09:19:34;;;;;;;38.23;35.10;;;;;;;15.77;100.00;101080.13;5035250;28;20459;-51
2022/10/25 09:22:09;;;;;;;39.70;36.00;;;;;;;15.72;100.00;101077.31;5035078;28;20829;-48
2022/10/25 09:24:46;;;;;;;38.10;35.00;;;;;;;15.67;100.00;101079.00;5035870;28;20427;-48
2022/10/25 09:27:19;;;;;;;39.63;36.20;;;;;;;15.58;100.00;101075.78;5054941;28;20443;-51
2022/10/25 09:29:50;;;;;;;37.73;34.63;;;;;;;15.54;100.00;101081.81;5054286;28;21025;-46
2022/10/25 09:32:24;;;;;;;36.60;33.70;;;;;;;15.57;100.00;101090.25;5035929;28;20825;-51
2022/10/25 09:34:53;;;;;;;37.93;34.67;;;;;;;15.52;100.00;101097.34;5034805;28;20435;-45
2022/10/25 09:37:28;;;;;;;38.23;34.70;;;;;;;15.53;100.00;101089.06;5034600;28;20475;-45
2022/10/25 09:39:59;;;;;;;36.90;33.80;;;;;;;15.48;100.00;101100.47;5047857;28;21056;-45
2022/10/25 09:42:32;;;;;;;37.07;34.30;;;;;;;15.44;100.00;101093.84;5054668;28;20416;-45
2022/10/25 09:45:04;;;;;;;37.70;34.53;;;;;;;15.48;100.00;101099.66;5051880;28;20439;-47
2022/10/25 09:47:39;;;;;;;36.83;33.67;;;;;;;15.61;100.00;101112.16;5039859;28;20867;-45
2022/10/25 09:50:12;;;;;;;36.80;33.73;;;;;;;15.69;100.00;101106.50;5053900;28;20990;-45
2022/10/25 09:52:46;;;;;;;38.97;35.60;;;;;;;15.74;100.00;101109.34;5038846;28;20428;-46
2022/10/25 09:55:32;;;;;;;36.47;34.10;;;;;;;15.78;100.00;101110.53;5021815;28;20482;-45
2022/10/25 09:58:01;;;;;;;36.73;33.67;;;;;;;15.67;100.00;101112.09;5027674;28;20474;-51
2022/10/25 10:00:29;;;;;;;36.17;33.30;;;;;;;15.54;100.00;101122.97;5038058;28;20464;-44
2022/10/25 10:02:56;;;;;;;36.83;34.30;;;;;;;15.61;100.00;101129.13;5034443;28;20799;-45
2022/10/25 10:05:24;;;;;;;36.60;33.50;;;;;;;15.66;100.00;101123.88;5052898;28;20428;-46
2022/10/25 10:07:53;;;;;;;37.10;33.93;;;;;;;15.73;100.00;101123.84;5054209;28;20450;-47
2022/10/25 10:10:24;;;;;;;36.97;33.77;;;;;;;15.81;100.00;101132.44;5049788;28;20468;-50
2022/10/25 10:12:58;;;;;;;37.73;34.53;;;;;;;15.86;100.00;101131.78;5036821;28;20436;-50
2022/10/25 10:15:30;;;;;;;37.13;34.40;;;;;;;15.94;100.00;101124.25;5048140;28;20797;-50
2022/10/25 10:18:20;;;;;;;37.63;34.60;;;;;;;16.08;100.00;101134.88;5034089;28;20529;-50
2022/10/25 10:21:01;;;;;;;38.30;35.10;;;;;;;16.00;100.00;101134.13;5040520;28;20514;-45
2022/10/25 10:23:33;;;;;;;37.10;34.50;;;;;;;15.81;100.00;101137.00;5049522;28;20419;-45
2022/10/25 10:26:03;;;;;;;36.30;32.73;;;;;;;15.80;100.00;101138.06;5034780;28;20419;-46
2022/10/25 10:28:31;;;;;;;35.73;33.00;;;;;;;15.93;100.00;101136.06;5033526;28;20425;-45
2022/10/25 10:31:07;;;;;;;35.03;32.27;;;;;;;15.90;100.00;101147.25;5033592;28;20436;-51
2022/10/25 10:33:35;;;;;;;34.77;32.00;;;;;;;16.04;100.00;101148.75;5033694;28;21060;-48
2022/10/25 10:36:24;;;;;;;36.30;33.60;;;;;;;15.99;100.00;101148.63;5045495;28;20497;-48
2022/10/25 10:38:53;;;;;;;37.13;33.90;;;;;;;15.83;100.00;101145.69;5033327;28;20499;-45
2022/10/25 10:41:24;;;;;;;36.37;33.37;;;;;;;15.74;100.00;101144.31;5033341;28;20424;-50
2022/10/25 10:44:07;;;;;;;36.97;33.87;;;;;;;15.87;100.00;101161.13;5035866;28;20922;-50
2022/10/25 10:46:35;;;;;;;38.00;34.67;;;;;;;15.92;100.00;101160.47;5042109;28;20464;-45
2022/10/25 10:49:03;;;;;;;36.00;33.10;;;;;;;15.95;100.00;101155.47;5034621;28;20472;-48
2022/10/25 10:51:40;;;;;;;36.30;33.03;;;;;;;15.92;100.00;101160.47;5037691;28;20427;-51
2022/10/25 10:54:28;;;;;;;36.33;33.47;;;;;;;16.00;100.00;101152.97;5045163;28;20447;-50
2022/10/25 10:56:58;;;;;;;36.30;33.47;;;;;;;16.10;100.00;101165.88;5041899;28;20521;-46
2022/10/25 10:59:29;;;;;;;36.57;33.40;;;;;;;15.94;100.00;101164.59;5044139;28;20460;-50
2022/10/25 11:01:57;;;;;;;35.73;33.20;;;;;;;15.75;100.00;101165.59;5043636;28;20413;-47
2022/10/25 11:04:25;;;;;;;36.93;33.60;;;;;;;15.69;100.00;101165.63;5039228;28;20527;-47
2022/10/25 11:06:53;;;;;;;35.73;33.00;;;;;;;16.01;100.00;101164.50;5040493;28;20502;-48
2022/10/25 11:09:24;;;;;;;35.70;32.87;;;;;;;16.12;100.00;101160.28;5033868;28;20939;-48
2022/10/25 11:12:14;;;;;;;36.27;33.77;;;;;;;16.51;100.00;101159.84;5052760;28;20951;-48
2022/10/25 11:14:42;;;;;;;36.80;33.80;;;;;;;16.89;100.00;101156.91;5034635;28;20436;-46
2022/10/25 11:17:15;;;;;;;34.60;32.30;;;;;;;17.08;100.00;101172.00;5036301;28;20480;-50